sensor_id;sensor_type;location;lat;lon;timestamp;temperature;humidity
22145;DHT22;11238;48.730;11.566;2023-04-25T00:00:47;7.60;99.90
22145;DHT22;11238;48.730;11.566;2023-04-25T00:03:13;7.60;99.90
22145;DHT22;11238;48.730;11.566;2023-04-25T00:05:39;7.60;99.90
22145;DHT22;11238;48.730;11.566;2023-04-25T00:08:05;7.70;99.90
22145;DHT22;11238;48.730;11.566;2023-04-25T00:10:31;7.60;99.90
22145;DHT22;11238;48.730;11.566;2023-04-25T00:12:57;7.60;99.90
22145;DHT22;11238;48.730;11.566;2023-04-25T00:15:23;7.60;99.90
22145;DHT22;11238;48.730;11.566;2023-04-25T00:17:50;7.50;99.90
22145;DHT22;11238;48.730;11.566;2023-04-25T00:20:18;7.50;99.90
22145;DHT22;11238;48.730;11.566;2023-04-25T00:22:43;7.50;99.90
22145;DHT22;11238;48.730;11.566;2023-04-25T00:25:09;7.50;99.90
22145;DHT22;11238;48.730;11.566;2023-04-25T00:27:35;7.50;99.90
22145;DHT22;11238;48.730;11.566;2023-04-25T00:30:01;7.40;99.90
22145;DHT22;11238;48.730;11.566;2023-04-25T00:32:27;7.40;99.90
22145;DHT22;11238;48.730;11.566;2023-04-25T00:34:52;7.40;99.90
22145;DHT22;11238;48.730;11.566;2023-04-25T00:37:18;7.40;99.90
22145;DHT22;11238;48.730;11.566;2023-04-25T00:39:45;7.30;99.90
22145;DHT22;11238;48.730;11.566;2023-04-25T00:42:12;7.30;99.90
22145;DHT22;11238;48.730;11.566;2023-04-25T00:44:37;7.30;99.90
22145;DHT22;11238;48.730;11.566;2023-04-25T00:47:04;7.20;99.90
22145;DHT22;11238;48.730;11.566;2023-04-25T00:49:30;7.10;99.90
22145;DHT22;11238;48.730;11.566;2023-04-25T00:51:56;7.10;99.90
22145;DHT22;11238;48.730;11.566;2023-04-25T00:54:22;7.10;99.90
22145;DHT22;11238;48.730;11.566;2023-04-25T00:56:49;7.00;99.90
22145;DHT22;11238;48.730;11.566;2023-04-25T00:59:15;7.00;99.90
22145;DHT22;11238;48.730;11.566;2023-04-25T01:01:41;7.00;99.90
22145;DHT22;11238;48.730;11.566;2023-04-25T01:04:07;7.00;99.90
22145;DHT22;11238;48.730;11.566;2023-04-25T01:06:36;6.90;99.90
22145;DHT22;11238;48.730;11.566;2023-04-25T01:09:02;6.90;99.90
22145;DHT22;11238;48.730;11.566;2023-04-25T01:11:30;6.90;99.90
22145;DHT22;11238;48.730;11.566;2023-04-25T01:13:56;6.90;99.90
22145;DHT22;11238;48.730;11.566;2023-04-25T01:16:23;6.80;99.90
22145;DHT22;11238;48.730;11.566;2023-04-25T01:18:49;6.80;99.90
22145;DHT22;11238;48.730;11.566;2023-04-25T01:21:17;6.80;99.90
22145;DHT22;11238;48.730;11.566;2023-04-25T01:23:44;6.80;99.90
22145;DHT22;11238;48.730;11.566;2023-04-25T01:26:11;6.70;99.90
22145;DHT22;11238;48.730;11.566;2023-04-25T01:28:38;6.80;99.90
22145;DHT22;11238;48.730;11.566;2023-04-25T01:31:09;6.80;99.90
22145;DHT22;11238;48.730;11.566;2023-04-25T01:33:35;6.70;99.90
22145;DHT22;11238;48.730;11.566;2023-04-25T01:36:01;6.70;99.90
22145;DHT22;11238;48.730;11.566;2023-04-25T01:38:27;6.70;99.90
22145;DHT22;11238;48.730;11.566;2023-04-25T01:40:53;6.80;99.90
22145;DHT22;11238;48.730;11.566;2023-04-25T01:43:21;6.80;99.90
22145;DHT22;11238;48.730;11.566;2023-04-25T01:45:46;6.80;99.90
22145;DHT22;11238;48.730;11.566;2023-04-25T01:48:14;6.80;99.90
22145;DHT22;11238;48.730;11.566;2023-04-25T01:50:40;6.90;99.90
22145;DHT22;11238;48.730;11.566;2023-04-25T01:53:06;6.90;99.90
22145;DHT22;11238;48.730;11.566;2023-04-25T01:55:34;6.90;99.90
22145;DHT22;11238;48.730;11.566;2023-04-25T01:58:04;7.00;99.90
22145;DHT22;11238;48.730;11.566;2023-04-25T02:00:52;7.00;99.90
22145;DHT22;11238;48.730;11.566;2023-04-25T02:03:18;7.00;99.90
22145;DHT22;11238;48.730;11.566;2023-04-25T02:05:44;7.00;99.90
22145;DHT22;11238;48.730;11.566;2023-04-25T02:08:13;7.00;99.90
22145;DHT22;11238;48.730;11.566;2023-04-25T02:10:39;7.00;99.90
22145;DHT22;11238;48.730;11.566;2023-04-25T02:13:17;7.00;99.90
22145;DHT22;11238;48.730;11.566;2023-04-25T02:16:05;7.00;99.90
22145;DHT22;11238;48.730;11.566;2023-04-25T02:18:31;7.10;99.90
22145;DHT22;11238;48.730;11.566;2023-04-25T02:20:59;7.10;99.90
22145;DHT22;11238;48.730;11.566;2023-04-25T02:23:25;7.10;99.90
22145;DHT22;11238;48.730;11.566;2023-04-25T02:25:52;7.10;99.90
22145;DHT22;11238;48.730;11.566;2023-04-25T02:28:18;7.00;99.90
22145;DHT22;11238;48.730;11.566;2023-04-25T02:30:44;7.00;99.90
22145;DHT22;11238;48.730;11.566;2023-04-25T02:33:10;7.00;99.90
22145;DHT22;11238;48.730;11.566;2023-04-25T02:35:36;6.90;99.90
22145;DHT22;11238;48.730;11.566;2023-04-25T02:38:02;6.90;99.90
22145;DHT22;11238;48.730;11.566;2023-04-25T02:40:28;6.90;99.90
22145;DHT22;11238;48.730;11.566;2023-04-25T02:42:54;6.80;99.90
22145;DHT22;11238;48.730;11.566;2023-04-25T02:45:20;6.80;99.90
22145;DHT22;11238;48.730;11.566;2023-04-25T02:47:46;6.90;99.90
22145;DHT22;11238;48.730;11.566;2023-04-25T02:50:11;6.90;99.90
22145;DHT22;11238;48.730;11.566;2023-04-25T02:52:39;6.90;99.90
22145;DHT22;11238;48.730;11.566;2023-04-25T02:55:13;6.80;99.90
22145;DHT22;11238;48.730;11.566;2023-04-25T02:57:39;6.90;99.90
22145;DHT22;11238;48.730;11.566;2023-04-25T03:00:06;6.90;99.90
22145;DHT22;11238;48.730;11.566;2023-04-25T03:02:32;6.90;99.90
22145;DHT22;11238;48.730;11.566;2023-04-25T03:04:58;6.90;99.90
22145;DHT22;11238;48.730;11.566;2023-04-25T03:07:24;6.90;99.90
22145;DHT22;11238;48.730;11.566;2023-04-25T03:09:50;6.90;99.90
22145;DHT22;11238;48.730;11.566;2023-04-25T03:12:16;6.90;99.90
22145;DHT22;11238;48.730;11.566;2023-04-25T03:14:42;6.80;99.90
22145;DHT22;11238;48.730;11.566;2023-04-25T03:17:08;6.60;99.90
22145;DHT22;11238;48.730;11.566;2023-04-25T03:19:34;6.60;99.90
22145;DHT22;11238;48.730;11.566;2023-04-25T03:22:01;6.60;99.90
22145;DHT22;11238;48.730;11.566;2023-04-25T03:24:27;6.70;99.90
22145;DHT22;11238;48.730;11.566;2023-04-25T03:26:53;6.70;99.90
22145;DHT22;11238;48.730;11.566;2023-04-25T03:29:19;6.70;99.90
22145;DHT22;11238;48.730;11.566;2023-04-25T03:31:51;6.80;99.90
22145;DHT22;11238;48.730;11.566;2023-04-25T03:34:16;6.70;99.90
22145;DHT22;11238;48.730;11.566;2023-04-25T03:36:43;6.60;99.90
22145;DHT22;11238;48.730;11.566;2023-04-25T03:39:10;6.60;99.90
22145;DHT22;11238;48.730;11.566;2023-04-25T03:41:36;6.40;99.90
22145;DHT22;11238;48.730;11.566;2023-04-25T03:44:08;6.40;99.90
22145;DHT22;11238;48.730;11.566;2023-04-25T03:46:55;6.40;99.90
22145;DHT22;11238;48.730;11.566;2023-04-25T03:49:24;6.50;99.90
22145;DHT22;11238;48.730;11.566;2023-04-25T03:51:57;6.50;99.90
22145;DHT22;11238;48.730;11.566;2023-04-25T03:54:23;6.50;99.90
22145;DHT22;11238;48.730;11.566;2023-04-25T03:56:57;6.50;99.90
22145;DHT22;11238;48.730;11.566;2023-04-25T03:59:26;6.60;99.90
22145;DHT22;11238;48.730;11.566;2023-04-25T04:01:52;6.60;99.90
22145;DHT22;11238;48.730;11.566;2023-04-25T04:04:19;6.60;99.90
22145;DHT22;11238;48.730;11.566;2023-04-25T04:06:44;6.50;99.90
22145;DHT22;11238;48.730;11.566;2023-04-25T04:09:20;6.50;99.90
22145;DHT22;11238;48.730;11.566;2023-04-25T04:11:46;6.60;99.90
22145;DHT22;11238;48.730;11.566;2023-04-25T04:14:12;6.50;99.90
22145;DHT22;11238;48.730;11.566;2023-04-25T04:16:43;6.50;99.90
22145;DHT22;11238;48.730;11.566;2023-04-25T04:19:08;6.50;99.90
22145;DHT22;11238;48.730;11.566;2023-04-25T04:21:35;6.50;99.90
22145;DHT22;11238;48.730;11.566;2023-04-25T04:24:02;6.60;99.90
22145;DHT22;11238;48.730;11.566;2023-04-25T04:26:36;6.60;99.90
22145;DHT22;11238;48.730;11.566;2023-04-25T04:29:11;6.60;99.90
22145;DHT22;11238;48.730;11.566;2023-04-25T04:31:40;6.70;99.90
22145;DHT22;11238;48.730;11.566;2023-04-25T04:34:07;6.60;99.90
22145;DHT22;11238;48.730;11.566;2023-04-25T04:36:34;6.70;99.90
22145;DHT22;11238;48.730;11.566;2023-04-25T04:39:00;6.70;99.90
22145;DHT22;11238;48.730;11.566;2023-04-25T04:41:42;6.70;99.90
22145;DHT22;11238;48.730;11.566;2023-04-25T04:44:13;6.80;99.90
22145;DHT22;11238;48.730;11.566;2023-04-25T04:47:00;6.80;99.90
22145;DHT22;11238;48.730;11.566;2023-04-25T04:49:36;6.80;99.90
22145;DHT22;11238;48.730;11.566;2023-04-25T04:52:17;6.90;99.90
22145;DHT22;11238;48.730;11.566;2023-04-25T04:55:04;6.90;99.90
22145;DHT22;11238;48.730;11.566;2023-04-25T04:58:04;7.00;99.90
22145;DHT22;11238;48.730;11.566;2023-04-25T05:00:51;7.00;99.90
22145;DHT22;11238;48.730;11.566;2023-04-25T05:03:33;7.10;99.90
22145;DHT22;11238;48.730;11.566;2023-04-25T05:06:19;7.10;99.90
22145;DHT22;11238;48.730;11.566;2023-04-25T05:09:06;7.10;99.90
22145;DHT22;11238;48.730;11.566;2023-04-25T05:11:51;7.00;99.90
22145;DHT22;11238;48.730;11.566;2023-04-25T05:14:26;7.00;99.90
22145;DHT22;11238;48.730;11.566;2023-04-25T05:17:28;6.90;99.90
22145;DHT22;11238;48.730;11.566;2023-04-25T05:20:12;6.90;99.90
22145;DHT22;11238;48.730;11.566;2023-04-25T05:23:02;6.90;99.90
22145;DHT22;11238;48.730;11.566;2023-04-25T05:25:50;6.90;99.90
22145;DHT22;11238;48.730;11.566;2023-04-25T05:28:41;6.90;99.90
22145;DHT22;11238;48.730;11.566;2023-04-25T05:31:27;6.90;99.90
22145;DHT22;11238;48.730;11.566;2023-04-25T05:34:00;6.90;99.90
22145;DHT22;11238;48.730;11.566;2023-04-25T05:36:38;6.90;99.90
22145;DHT22;11238;48.730;11.566;2023-04-25T05:39:04;6.90;99.90
22145;DHT22;11238;48.730;11.566;2023-04-25T05:42:01;6.90;99.90
22145;DHT22;11238;48.730;11.566;2023-04-25T05:44:59;6.90;99.90
22145;DHT22;11238;48.730;11.566;2023-04-25T05:47:45;6.80;99.90
22145;DHT22;11238;48.730;11.566;2023-04-25T05:50:16;6.90;99.90
22145;DHT22;11238;48.730;11.566;2023-04-25T05:52:50;7.00;99.90
22145;DHT22;11238;48.730;11.566;2023-04-25T05:55:38;7.00;99.90
22145;DHT22;11238;48.730;11.566;2023-04-25T05:58:19;7.20;99.90
22145;DHT22;11238;48.730;11.566;2023-04-25T06:00:45;7.20;99.90
22145;DHT22;11238;48.730;11.566;2023-04-25T06:03:12;7.20;99.90
22145;DHT22;11238;48.730;11.566;2023-04-25T06:05:41;7.10;99.90
22145;DHT22;11238;48.730;11.566;2023-04-25T06:08:07;7.20;99.90
22145;DHT22;11238;48.730;11.566;2023-04-25T06:10:34;7.20;99.90
22145;DHT22;11238;48.730;11.566;2023-04-25T06:12:59;7.30;99.90
22145;DHT22;11238;48.730;11.566;2023-04-25T06:15:26;7.30;99.90
22145;DHT22;11238;48.730;11.566;2023-04-25T06:17:52;7.30;99.90
22145;DHT22;11238;48.730;11.566;2023-04-25T06:20:19;7.40;99.90
22145;DHT22;11238;48.730;11.566;2023-04-25T06:22:49;7.40;99.90
22145;DHT22;11238;48.730;11.566;2023-04-25T06:25:16;7.50;99.90
22145;DHT22;11238;48.730;11.566;2023-04-25T06:27:41;7.60;99.90
22145;DHT22;11238;48.730;11.566;2023-04-25T06:30:08;7.80;99.90
22145;DHT22;11238;48.730;11.566;2023-04-25T06:32:35;7.80;99.90
22145;DHT22;11238;48.730;11.566;2023-04-25T06:35:01;7.90;99.90
22145;DHT22;11238;48.730;11.566;2023-04-25T06:37:28;8.00;99.90
22145;DHT22;11238;48.730;11.566;2023-04-25T06:39:55;8.00;99.90
22145;DHT22;11238;48.730;11.566;2023-04-25T06:42:21;8.10;99.90
22145;DHT22;11238;48.730;11.566;2023-04-25T06:44:57;8.10;99.90
22145;DHT22;11238;48.730;11.566;2023-04-25T06:47:24;8.20;99.90
22145;DHT22;11238;48.730;11.566;2023-04-25T06:49:52;8.20;99.90
22145;DHT22;11238;48.730;11.566;2023-04-25T06:52:19;8.20;99.90
22145;DHT22;11238;48.730;11.566;2023-04-25T06:54:47;8.20;99.90
22145;DHT22;11238;48.730;11.566;2023-04-25T06:57:24;8.20;99.90
22145;DHT22;11238;48.730;11.566;2023-04-25T06:59:50;8.30;99.90
22145;DHT22;11238;48.730;11.566;2023-04-25T07:02:15;8.30;99.90
22145;DHT22;11238;48.730;11.566;2023-04-25T07:04:42;8.50;99.90
22145;DHT22;11238;48.730;11.566;2023-04-25T07:07:08;8.60;99.90
22145;DHT22;11238;48.730;11.566;2023-04-25T07:09:56;8.70;99.90
22145;DHT22;11238;48.730;11.566;2023-04-25T07:12:24;8.80;99.90
22145;DHT22;11238;48.730;11.566;2023-04-25T07:14:50;8.90;99.90
22145;DHT22;11238;48.730;11.566;2023-04-25T07:17:15;8.90;99.90
22145;DHT22;11238;48.730;11.566;2023-04-25T07:19:42;9.00;99.90
22145;DHT22;11238;48.730;11.566;2023-04-25T07:22:08;9.10;99.90
22145;DHT22;11238;48.730;11.566;2023-04-25T07:24:37;9.10;99.90
22145;DHT22;11238;48.730;11.566;2023-04-25T07:27:04;9.20;99.90
22145;DHT22;11238;48.730;11.566;2023-04-25T07:29:42;9.30;99.90
22145;DHT22;11238;48.730;11.566;2023-04-25T07:32:09;9.30;99.90
22145;DHT22;11238;48.730;11.566;2023-04-25T07:34:38;9.40;99.90
22145;DHT22;11238;48.730;11.566;2023-04-25T07:37:04;9.50;99.90
22145;DHT22;11238;48.730;11.566;2023-04-25T07:39:37;9.50;99.90
22145;DHT22;11238;48.730;11.566;2023-04-25T07:42:05;9.70;99.90
22145;DHT22;11238;48.730;11.566;2023-04-25T07:44:35;9.70;99.90
22145;DHT22;11238;48.730;11.566;2023-04-25T07:47:10;9.70;99.90
22145;DHT22;11238;48.730;11.566;2023-04-25T07:49:39;9.70;99.90
22145;DHT22;11238;48.730;11.566;2023-04-25T07:52:06;9.60;99.90
22145;DHT22;11238;48.730;11.566;2023-04-25T07:54:35;9.60;99.90
22145;DHT22;11238;48.730;11.566;2023-04-25T07:57:08;9.60;99.90
22145;DHT22;11238;48.730;11.566;2023-04-25T07:59:35;9.50;99.90
22145;DHT22;11238;48.730;11.566;2023-04-25T08:02:02;9.50;99.90
22145;DHT22;11238;48.730;11.566;2023-04-25T08:04:28;9.60;99.90
22145;DHT22;11238;48.730;11.566;2023-04-25T08:07:16;9.60;99.90
22145;DHT22;11238;48.730;11.566;2023-04-25T08:09:50;9.50;99.90
22145;DHT22;11238;48.730;11.566;2023-04-25T08:12:23;9.50;99.90
22145;DHT22;11238;48.730;11.566;2023-04-25T08:14:50;9.50;99.90
22145;DHT22;11238;48.730;11.566;2023-04-25T08:17:16;9.50;99.90
22145;DHT22;11238;48.730;11.566;2023-04-25T08:19:41;9.50;99.90
22145;DHT22;11238;48.730;11.566;2023-04-25T08:22:14;9.60;99.90
22145;DHT22;11238;48.730;11.566;2023-04-25T08:24:49;9.70;99.90
22145;DHT22;11238;48.730;11.566;2023-04-25T08:27:37;9.70;99.90
22145;DHT22;11238;48.730;11.566;2023-04-25T08:30:05;9.90;99.90
22145;DHT22;11238;48.730;11.566;2023-04-25T08:32:32;10.10;99.90
22145;DHT22;11238;48.730;11.566;2023-04-25T08:35:15;10.20;99.90
22145;DHT22;11238;48.730;11.566;2023-04-25T08:37:45;10.20;99.90
22145;DHT22;11238;48.730;11.566;2023-04-25T08:40:14;10.20;99.90
22145;DHT22;11238;48.730;11.566;2023-04-25T08:43:13;10.30;99.90
22145;DHT22;11238;48.730;11.566;2023-04-25T08:45:41;10.40;99.90
22145;DHT22;11238;48.730;11.566;2023-04-25T08:48:14;10.50;99.90
22145;DHT22;11238;48.730;11.566;2023-04-25T08:50:54;10.70;99.90
22145;DHT22;11238;48.730;11.566;2023-04-25T08:53:32;10.70;99.90
22145;DHT22;11238;48.730;11.566;2023-04-25T08:56:02;10.60;99.90
22145;DHT22;11238;48.730;11.566;2023-04-25T08:58:33;10.50;99.90
22145;DHT22;11238;48.730;11.566;2023-04-25T09:00:59;10.30;99.90
22145;DHT22;11238;48.730;11.566;2023-04-25T09:03:27;10.30;99.90
22145;DHT22;11238;48.730;11.566;2023-04-25T09:05:54;10.20;99.90
22145;DHT22;11238;48.730;11.566;2023-04-25T09:08:20;10.30;99.90
22145;DHT22;11238;48.730;11.566;2023-04-25T09:10:47;10.20;99.90
22145;DHT22;11238;48.730;11.566;2023-04-25T09:13:14;10.30;99.90
22145;DHT22;11238;48.730;11.566;2023-04-25T09:16:14;10.10;99.90
22145;DHT22;11238;48.730;11.566;2023-04-25T09:19:03;10.10;99.90
22145;DHT22;11238;48.730;11.566;2023-04-25T09:21:28;10.30;99.90
22145;DHT22;11238;48.730;11.566;2023-04-25T09:23:56;10.20;99.90
22145;DHT22;11238;48.730;11.566;2023-04-25T09:26:25;10.30;99.90
22145;DHT22;11238;48.730;11.566;2023-04-25T09:29:05;10.40;99.90
22145;DHT22;11238;48.730;11.566;2023-04-25T09:31:50;10.60;99.90
22145;DHT22;11238;48.730;11.566;2023-04-25T09:34:16;10.70;99.90
22145;DHT22;11238;48.730;11.566;2023-04-25T09:39:54;11.00;99.90
22145;DHT22;11238;48.730;11.566;2023-04-25T09:42:24;11.00;99.90
22145;DHT22;11238;48.730;11.566;2023-04-25T09:44:55;10.10;99.90
22145;DHT22;11238;48.730;11.566;2023-04-25T09:47:23;9.40;99.90
22145;DHT22;11238;48.730;11.566;2023-04-25T09:49:50;9.00;99.90
22145;DHT22;11238;48.730;11.566;2023-04-25T09:52:20;8.90;99.90
22145;DHT22;11238;48.730;11.566;2023-04-25T09:54:59;8.70;99.90
22145;DHT22;11238;48.730;11.566;2023-04-25T09:57:31;8.30;99.90
22145;DHT22;11238;48.730;11.566;2023-04-25T09:59:59;8.40;99.90
22145;DHT22;11238;48.730;11.566;2023-04-25T10:02:30;8.40;99.90
22145;DHT22;11238;48.730;11.566;2023-04-25T10:05:05;8.30;99.90
22145;DHT22;11238;48.730;11.566;2023-04-25T10:07:38;8.40;99.90
22145;DHT22;11238;48.730;11.566;2023-04-25T10:10:08;8.50;99.90
22145;DHT22;11238;48.730;11.566;2023-04-25T10:12:37;8.60;99.90
22145;DHT22;11238;48.730;11.566;2023-04-25T10:15:06;8.90;99.90
22145;DHT22;11238;48.730;11.566;2023-04-25T10:17:35;9.10;99.90
22145;DHT22;11238;48.730;11.566;2023-04-25T10:20:03;9.40;99.90
22145;DHT22;11238;48.730;11.566;2023-04-25T10:22:36;9.60;99.90
22145;DHT22;11238;48.730;11.566;2023-04-25T10:25:02;9.80;99.90
22145;DHT22;11238;48.730;11.566;2023-04-25T10:27:30;10.20;99.90
22145;DHT22;11238;48.730;11.566;2023-04-25T10:30:11;10.40;99.90
22145;DHT22;11238;48.730;11.566;2023-04-25T10:32:44;10.40;99.90
22145;DHT22;11238;48.730;11.566;2023-04-25T10:35:18;10.50;99.90
22145;DHT22;11238;48.730;11.566;2023-04-25T10:40:24;10.60;99.90
22145;DHT22;11238;48.730;11.566;2023-04-25T10:42:52;10.40;99.90
22145;DHT22;11238;48.730;11.566;2023-04-25T10:45:20;10.40;99.90
22145;DHT22;11238;48.730;11.566;2023-04-25T10:47:46;10.20;99.90
22145;DHT22;11238;48.730;11.566;2023-04-25T10:50:11;10.30;99.90
22145;DHT22;11238;48.730;11.566;2023-04-25T10:52:39;10.40;99.90
22145;DHT22;11238;48.730;11.566;2023-04-25T10:55:06;10.60;99.90
22145;DHT22;11238;48.730;11.566;2023-04-25T10:57:42;10.60;99.90
22145;DHT22;11238;48.730;11.566;2023-04-25T11:00:20;10.60;99.90
22145;DHT22;11238;48.730;11.566;2023-04-25T11:02:52;10.60;99.90
22145;DHT22;11238;48.730;11.566;2023-04-25T11:05:32;10.60;99.90
22145;DHT22;11238;48.730;11.566;2023-04-25T11:07:59;10.50;99.90
22145;DHT22;11238;48.730;11.566;2023-04-25T11:10:29;10.40;99.90
22145;DHT22;11238;48.730;11.566;2023-04-25T11:12:57;10.50;99.90
22145;DHT22;11238;48.730;11.566;2023-04-25T11:15:23;10.70;99.90
22145;DHT22;11238;48.730;11.566;2023-04-25T11:17:51;10.80;99.90
22145;DHT22;11238;48.730;11.566;2023-04-25T11:20:17;11.00;99.90
22145;DHT22;11238;48.730;11.566;2023-04-25T11:22:46;11.30;99.90
22145;DHT22;11238;48.730;11.566;2023-04-25T11:25:14;11.50;99.90
22145;DHT22;11238;48.730;11.566;2023-04-25T11:27:53;11.50;99.90
22145;DHT22;11238;48.730;11.566;2023-04-25T11:30:48;11.60;99.90
22145;DHT22;11238;48.730;11.566;2023-04-25T11:33:14;11.50;99.90
22145;DHT22;11238;48.730;11.566;2023-04-25T11:35:43;11.30;99.90
22145;DHT22;11238;48.730;11.566;2023-04-25T11:38:16;11.20;99.90
22145;DHT22;11238;48.730;11.566;2023-04-25T11:40:42;11.30;99.90
22145;DHT22;11238;48.730;11.566;2023-04-25T11:43:09;11.50;99.90
22145;DHT22;11238;48.730;11.566;2023-04-25T11:45:37;11.70;99.90
22145;DHT22;11238;48.730;11.566;2023-04-25T11:48:02;11.90;99.90
22145;DHT22;11238;48.730;11.566;2023-04-25T11:50:29;11.70;98.70
22145;DHT22;11238;48.730;11.566;2023-04-25T11:52:56;11.80;97.10
22145;DHT22;11238;48.730;11.566;2023-04-25T11:55:23;12.10;99.20
22145;DHT22;11238;48.730;11.566;2023-04-25T11:57:50;12.30;99.50
22145;DHT22;11238;48.730;11.566;2023-04-25T12:00:19;12.40;96.40
22145;DHT22;11238;48.730;11.566;2023-04-25T12:02:48;12.30;98.50
22145;DHT22;11238;48.730;11.566;2023-04-25T12:05:20;12.10;95.10
22145;DHT22;11238;48.730;11.566;2023-04-25T12:07:46;12.10;97.00
22145;DHT22;11238;48.730;11.566;2023-04-25T12:10:14;12.20;97.10
22145;DHT22;11238;48.730;11.566;2023-04-25T12:12:42;12.30;95.30
22145;DHT22;11238;48.730;11.566;2023-04-25T12:15:22;12.50;97.30
22145;DHT22;11238;48.730;11.566;2023-04-25T12:17:51;12.90;97.50
22145;DHT22;11238;48.730;11.566;2023-04-25T12:20:20;13.00;95.50
22145;DHT22;11238;48.730;11.566;2023-04-25T12:22:49;13.00;92.00
22145;DHT22;11238;48.730;11.566;2023-04-25T12:25:38;13.00;93.10
22145;DHT22;11238;48.730;11.566;2023-04-25T12:28:22;13.20;92.70
22145;DHT22;11238;48.730;11.566;2023-04-25T12:31:09;13.10;94.10
22145;DHT22;11238;48.730;11.566;2023-04-25T12:33:37;13.00;93.60
22145;DHT22;11238;48.730;11.566;2023-04-25T12:36:04;12.90;93.20
22145;DHT22;11238;48.730;11.566;2023-04-25T12:38:44;12.80;93.80
22145;DHT22;11238;48.730;11.566;2023-04-25T12:41:10;12.60;95.80
22145;DHT22;11238;48.730;11.566;2023-04-25T12:43:35;12.40;95.10
22145;DHT22;11238;48.730;11.566;2023-04-25T12:46:03;12.20;95.30
22145;DHT22;11238;48.730;11.566;2023-04-25T12:48:28;11.60;95.70
22145;DHT22;11238;48.730;11.566;2023-04-25T12:50:54;11.40;97.00
22145;DHT22;11238;48.730;11.566;2023-04-25T12:53:22;11.50;96.50
22145;DHT22;11238;48.730;11.566;2023-04-25T12:55:50;11.40;94.40
22145;DHT22;11238;48.730;11.566;2023-04-25T12:58:17;11.30;94.60
22145;DHT22;11238;48.730;11.566;2023-04-25T13:00:43;11.30;94.50
22145;DHT22;11238;48.730;11.566;2023-04-25T13:03:10;11.50;95.10
22145;DHT22;11238;48.730;11.566;2023-04-25T13:05:37;11.40;93.10
22145;DHT22;11238;48.730;11.566;2023-04-25T13:08:03;11.40;94.80
22145;DHT22;11238;48.730;11.566;2023-04-25T13:10:30;11.50;95.00
22145;DHT22;11238;48.730;11.566;2023-04-25T13:12:56;11.30;93.50
22145;DHT22;11238;48.730;11.566;2023-04-25T13:15:22;11.20;94.30
22145;DHT22;11238;48.730;11.566;2023-04-25T13:17:49;11.30;94.70
22145;DHT22;11238;48.730;11.566;2023-04-25T13:20:15;11.30;94.20
22145;DHT22;11238;48.730;11.566;2023-04-25T13:22:42;11.30;92.90
22145;DHT22;11238;48.730;11.566;2023-04-25T13:25:08;11.30;93.30
22145;DHT22;11238;48.730;11.566;2023-04-25T13:27:35;11.20;93.60
22145;DHT22;11238;48.730;11.566;2023-04-25T13:30:05;11.30;93.30
22145;DHT22;11238;48.730;11.566;2023-04-25T13:32:37;11.10;92.50
22145;DHT22;11238;48.730;11.566;2023-04-25T13:35:07;11.20;93.40
22145;DHT22;11238;48.730;11.566;2023-04-25T13:37:37;11.10;93.80
22145;DHT22;11238;48.730;11.566;2023-04-25T13:40:08;11.20;92.90
22145;DHT22;11238;48.730;11.566;2023-04-25T13:42:36;11.20;92.20
22145;DHT22;11238;48.730;11.566;2023-04-25T13:45:02;11.30;91.80
22145;DHT22;11238;48.730;11.566;2023-04-25T13:47:30;11.20;91.00
22145;DHT22;11238;48.730;11.566;2023-04-25T13:49:56;11.20;91.90
22145;DHT22;11238;48.730;11.566;2023-04-25T13:52:23;11.20;92.60
22145;DHT22;11238;48.730;11.566;2023-04-25T13:54:55;11.20;93.30
22145;DHT22;11238;48.730;11.566;2023-04-25T13:57:21;11.10;96.10
22145;DHT22;11238;48.730;11.566;2023-04-25T13:59:47;10.90;95.20
22145;DHT22;11238;48.730;11.566;2023-04-25T14:02:13;10.90;95.40
22145;DHT22;11238;48.730;11.566;2023-04-25T14:04:40;10.90;96.00
22145;DHT22;11238;48.730;11.566;2023-04-25T14:07:06;10.90;97.30
22145;DHT22;11238;48.730;11.566;2023-04-25T14:09:32;10.80;99.90
22145;DHT22;11238;48.730;11.566;2023-04-25T14:11:58;10.80;99.90
22145;DHT22;11238;48.730;11.566;2023-04-25T14:14:25;10.60;99.90
22145;DHT22;11238;48.730;11.566;2023-04-25T14:16:51;10.70;99.90
22145;DHT22;11238;48.730;11.566;2023-04-25T14:19:20;10.70;99.90
22145;DHT22;11238;48.730;11.566;2023-04-25T14:21:46;10.60;99.90
22145;DHT22;11238;48.730;11.566;2023-04-25T14:24:13;10.60;99.90
22145;DHT22;11238;48.730;11.566;2023-04-25T14:26:39;10.60;99.90
22145;DHT22;11238;48.730;11.566;2023-04-25T14:29:06;10.80;99.90
22145;DHT22;11238;48.730;11.566;2023-04-25T14:31:33;10.80;99.90
22145;DHT22;11238;48.730;11.566;2023-04-25T14:33:59;10.80;99.90
22145;DHT22;11238;48.730;11.566;2023-04-25T14:36:26;10.80;99.90
22145;DHT22;11238;48.730;11.566;2023-04-25T14:38:52;10.80;99.90
22145;DHT22;11238;48.730;11.566;2023-04-25T14:41:18;10.60;99.90
22145;DHT22;11238;48.730;11.566;2023-04-25T14:43:44;10.70;99.90
22145;DHT22;11238;48.730;11.566;2023-04-25T14:46:11;10.80;99.90
22145;DHT22;11238;48.730;11.566;2023-04-25T14:48:38;10.90;99.90
22145;DHT22;11238;48.730;11.566;2023-04-25T14:51:10;10.90;99.90
22145;DHT22;11238;48.730;11.566;2023-04-25T14:53:36;10.90;99.90
22145;DHT22;11238;48.730;11.566;2023-04-25T14:56:02;10.90;99.90
22145;DHT22;11238;48.730;11.566;2023-04-25T14:58:29;10.80;99.90
22145;DHT22;11238;48.730;11.566;2023-04-25T15:00:54;10.70;97.30
22145;DHT22;11238;48.730;11.566;2023-04-25T15:03:21;10.70;96.50
22145;DHT22;11238;48.730;11.566;2023-04-25T15:05:47;10.70;98.20
22145;DHT22;11238;48.730;11.566;2023-04-25T15:08:14;10.70;98.40
22145;DHT22;11238;48.730;11.566;2023-04-25T15:10:40;10.70;95.90
22145;DHT22;11238;48.730;11.566;2023-04-25T15:13:06;10.70;95.50
22145;DHT22;11238;48.730;11.566;2023-04-25T15:15:32;10.50;95.70
22145;DHT22;11238;48.730;11.566;2023-04-25T15:17:57;10.30;94.20
22145;DHT22;11238;48.730;11.566;2023-04-25T15:20:24;10.30;94.90
22145;DHT22;11238;48.730;11.566;2023-04-25T15:22:50;10.30;95.50
22145;DHT22;11238;48.730;11.566;2023-04-25T15:25:17;10.30;94.60
22145;DHT22;11238;48.730;11.566;2023-04-25T15:27:43;10.20;95.10
22145;DHT22;11238;48.730;11.566;2023-04-25T15:30:12;10.30;94.40
22145;DHT22;11238;48.730;11.566;2023-04-25T15:32:41;10.30;94.10
22145;DHT22;11238;48.730;11.566;2023-04-25T15:35:08;10.40;95.50
22145;DHT22;11238;48.730;11.566;2023-04-25T15:37:34;10.10;99.90
22145;DHT22;11238;48.730;11.566;2023-04-25T15:40:05;9.90;99.90
22145;DHT22;11238;48.730;11.566;2023-04-25T15:42:40;9.80;99.90
22145;DHT22;11238;48.730;11.566;2023-04-25T15:45:08;9.80;99.90
22145;DHT22;11238;48.730;11.566;2023-04-25T15:47:35;9.80;99.90